Аэропорт: Нариманово. Астрахань

ICAO: URWA

METAR:
2018/09/23 11:00
URWA 231100Z 14006MPS 110V170 CAVOK 25/04 Q1018 R09/010070 NOSIG RMK QFE765/1020
METAR:
2018/08/07 06:12
TAF TAF URWA 070500Z 0706/0718 22003G09MPS 9999 SCT040 
      TEMPO 0709/0715 18005G11MPS SCT030CB